createdAt,value
2017-07-10T00:00:46.571Z,0
2017-07-10T00:01:47.834Z,0
2017-07-10T00:02:49.065Z,0
2017-07-10T00:03:50.326Z,0
2017-07-10T00:04:51.576Z,0
2017-07-10T00:05:52.832Z,0
2017-07-10T00:06:54.084Z,0
2017-07-10T00:07:55.355Z,0
2017-07-10T00:08:56.618Z,0
2017-07-10T00:09:57.916Z,0
2017-07-10T00:10:59.130Z,0
2017-07-10T00:12:00.377Z,0
2017-07-10T00:13:01.642Z,0
2017-07-10T00:14:02.896Z,0
2017-07-10T00:15:04.182Z,0
2017-07-10T00:16:05.446Z,0
2017-07-10T00:17:06.704Z,0
2017-07-10T00:18:07.953Z,0
2017-07-10T00:19:09.232Z,0
2017-07-10T00:20:10.537Z,0
2017-07-10T00:21:11.810Z,0
2017-07-10T00:22:13.047Z,0
2017-07-10T00:23:14.406Z,0
2017-07-10T00:24:15.664Z,0
2017-07-10T00:25:17.063Z,0
2017-07-10T00:26:18.413Z,0
2017-07-10T00:27:19.671Z,0
2017-07-10T00:28:20.919Z,0
2017-07-10T00:29:22.180Z,0
2017-07-10T00:30:23.445Z,0
2017-07-10T00:31:24.678Z,0
2017-07-10T00:32:25.945Z,0
2017-07-10T00:33:27.175Z,0
2017-07-10T00:34:28.437Z,0
2017-07-10T00:35:29.711Z,0
2017-07-10T00:36:31.045Z,0
2017-07-10T00:37:32.302Z,0
2017-07-10T00:38:33.565Z,0
2017-07-10T00:39:34.942Z,0
2017-07-10T00:40:36.210Z,0
2017-07-10T00:41:37.442Z,0
2017-07-10T00:42:38.695Z,0
2017-07-10T00:43:40.067Z,0
2017-07-10T00:44:41.332Z,0
2017-07-10T00:45:42.590Z,0
2017-07-10T00:46:43.903Z,0
2017-07-10T00:47:45.131Z,0
2017-07-10T00:48:46.385Z,0
2017-07-10T00:49:47.652Z,0
2017-07-10T00:50:48.975Z,0
2017-07-10T00:51:50.226Z,0
2017-07-10T00:52:51.501Z,0
2017-07-10T00:53:52.718Z,0
2017-07-10T00:54:53.979Z,0
2017-07-10T00:55:55.289Z,0
2017-07-10T00:56:56.531Z,0
2017-07-10T00:57:57.800Z,0
2017-07-10T00:58:59.059Z,0
2017-07-10T01:00:00.299Z,0
2017-07-10T01:01:01.552Z,0
2017-07-10T01:02:02.939Z,0
2017-07-10T01:03:04.185Z,0
2017-07-10T01:04:05.465Z,0
2017-07-10T01:05:06.690Z,0
2017-07-10T01:06:07.933Z,0
2017-07-10T01:07:09.206Z,0
2017-07-10T01:08:10.514Z,0
2017-07-10T01:09:11.755Z,0
2017-07-10T01:10:13.049Z,0
2017-07-10T01:11:14.298Z,0
2017-07-10T01:12:15.561Z,0
2017-07-10T01:13:16.825Z,0
2017-07-10T01:14:18.139Z,0
2017-07-10T01:15:19.400Z,0
2017-07-10T01:16:20.747Z,0
2017-07-10T01:17:22.042Z,0
2017-07-10T01:18:23.290Z,0
2017-07-10T01:19:24.540Z,0
2017-07-10T01:20:25.887Z,0
2017-07-10T01:21:27.038Z,0
2017-07-10T01:22:28.328Z,0
2017-07-10T01:23:29.577Z,0
2017-07-10T01:24:30.827Z,0
2017-07-10T01:25:32.100Z,0
2017-07-10T01:26:33.357Z,0
2017-07-10T01:27:34.756Z,0
2017-07-10T01:28:36.133Z,0
2017-07-10T01:29:37.380Z,0
2017-07-10T01:30:38.656Z,0
2017-07-10T01:31:39.897Z,0
2017-07-10T01:32:41.150Z,0
2017-07-10T01:33:42.507Z,0
2017-07-10T01:34:43.756Z,0
2017-07-10T01:35:45.014Z,0
2017-07-10T01:36:46.264Z,0
2017-07-10T01:37:47.505Z,0
2017-07-10T01:38:48.874Z,0
2017-07-10T01:39:50.113Z,0
2017-07-10T01:40:51.360Z,0
2017-07-10T01:41:52.613Z,0
2017-07-10T01:42:53.861Z,0
2017-07-10T01:43:55.108Z,0
2017-07-10T01:44:56.403Z,0
2017-07-10T01:45:57.675Z,0
2017-07-10T01:46:58.934Z,0
2017-07-10T01:48:00.194Z,0
2017-07-10T01:49:01.442Z,0
2017-07-10T01:50:02.696Z,0
2017-07-10T01:51:03.949Z,0
2017-07-10T01:52:05.198Z,0
2017-07-10T01:53:06.461Z,0
2017-07-10T01:54:07.710Z,0
2017-07-10T01:55:08.959Z,0
2017-07-10T01:56:10.207Z,0
2017-07-10T01:57:11.457Z,0
2017-07-10T01:58:12.742Z,0
2017-07-10T01:59:14.055Z,0
2017-07-10T02:00:15.300Z,0
2017-07-10T02:01:16.544Z,0
2017-07-10T02:02:17.790Z,0
2017-07-10T02:03:19.067Z,0
2017-07-10T02:04:20.374Z,0
2017-07-10T02:05:21.659Z,0
2017-07-10T02:06:22.898Z,0
2017-07-10T02:07:24.165Z,0
2017-07-10T02:08:25.422Z,0
2017-07-10T02:09:26.673Z,0
2017-07-10T02:10:28.005Z,0
2017-07-10T02:11:29.261Z,0
2017-07-10T02:12:30.508Z,0
2017-07-10T02:13:31.757Z,0
2017-07-10T02:14:33.018Z,0
2017-07-10T02:15:34.285Z,0
2017-07-10T02:16:35.553Z,0
2017-07-10T02:17:36.802Z,0
2017-07-10T02:18:38.125Z,0
2017-07-10T02:19:39.381Z,0
2017-07-10T02:20:40.629Z,0
2017-07-10T02:21:41.893Z,0
2017-07-10T02:22:43.166Z,0
2017-07-10T02:23:44.503Z,0
2017-07-10T02:24:45.762Z,0
2017-07-10T02:25:47.005Z,0
2017-07-10T02:26:48.259Z,0
2017-07-10T02:27:49.507Z,0
2017-07-10T02:28:50.827Z,0
2017-07-10T02:29:52.074Z,0
2017-07-10T02:30:53.321Z,0
2017-07-10T02:31:54.573Z,0
2017-07-10T02:32:55.830Z,0
2017-07-10T02:33:57.049Z,0
2017-07-10T02:34:58.316Z,0
2017-07-10T02:35:59.636Z,0
2017-07-10T02:37:00.873Z,0
2017-07-10T02:38:02.140Z,0
2017-07-10T02:39:03.371Z,0
2017-07-10T02:40:04.646Z,0
2017-07-10T02:41:05.901Z,0
2017-07-10T02:42:07.125Z,0
2017-07-10T02:43:08.412Z,0
2017-07-10T02:44:09.700Z,0
2017-07-10T02:45:10.918Z,0
2017-07-10T02:46:12.349Z,4
2017-07-10T02:47:13.475Z,4
2017-07-10T02:48:14.748Z,4
2017-07-10T02:49:16.009Z,0
2017-07-10T02:50:17.248Z,0
2017-07-10T02:51:18.504Z,0
2017-07-10T02:52:19.780Z,4
2017-07-10T02:53:21.025Z,4
2017-07-10T02:54:22.307Z,4
2017-07-10T02:55:23.569Z,4
2017-07-10T02:56:24.810Z,4
2017-07-10T02:57:26.049Z,8
2017-07-10T02:58:27.304Z,4
2017-07-10T02:59:28.571Z,8
2017-07-10T03:00:29.874Z,8
2017-07-10T03:01:31.260Z,12
2017-07-10T03:02:32.544Z,8
2017-07-10T03:03:33.791Z,12
2017-07-10T03:04:35.044Z,12
2017-07-10T03:05:36.339Z,12
2017-07-10T03:06:37.623Z,12
2017-07-10T03:07:38.987Z,16
2017-07-10T03:08:40.236Z,16
2017-07-10T03:09:41.496Z,20
2017-07-10T03:10:42.746Z,20
2017-07-10T03:11:44.016Z,24
2017-07-10T03:12:45.258Z,24
2017-07-10T03:13:46.507Z,28
2017-07-10T03:14:47.769Z,32
2017-07-10T03:15:49.012Z,32
2017-07-10T03:16:50.314Z,36
2017-07-10T03:17:51.550Z,40
2017-07-10T03:18:52.868Z,40
2017-07-10T03:19:54.119Z,40
2017-07-10T03:20:55.359Z,44
2017-07-10T03:21:56.606Z,40
2017-07-10T03:22:57.890Z,44
2017-07-10T03:23:59.108Z,44
2017-07-10T03:25:00.467Z,44
2017-07-10T03:26:01.798Z,48
2017-07-10T03:27:03.033Z,48
2017-07-10T03:28:04.294Z,52
2017-07-10T03:29:05.545Z,56
2017-07-10T03:30:06.795Z,60
2017-07-10T03:31:08.034Z,64
2017-07-10T03:32:09.298Z,68
2017-07-10T03:33:10.566Z,72
2017-07-10T03:34:11.814Z,76
2017-07-10T03:35:13.081Z,80
2017-07-10T03:36:14.328Z,84
2017-07-10T03:37:15.579Z,96
2017-07-10T03:38:16.854Z,104
2017-07-10T03:39:18.111Z,116
2017-07-10T03:40:19.368Z,128
2017-07-10T03:41:20.599Z,140
2017-07-10T03:42:21.838Z,164
2017-07-10T03:43:23.188Z,188
2017-07-10T03:44:24.456Z,212
2017-07-10T03:45:25.716Z,248
2017-07-10T03:46:26.951Z,284
2017-07-10T03:47:28.310Z,332
2017-07-10T03:48:29.569Z,388
2017-07-10T03:49:30.832Z,452
2017-07-10T03:50:32.121Z,520
2017-07-10T03:51:33.368Z,596
2017-07-10T03:52:34.675Z,684
2017-07-10T03:53:35.880Z,772
2017-07-10T03:54:37.169Z,868
2017-07-10T03:55:38.416Z,956
2017-07-10T03:56:39.671Z,1048
2017-07-10T03:57:41.046Z,1136
2017-07-10T03:58:42.338Z,1212
2017-07-10T03:59:43.592Z,1280
2017-07-10T04:00:44.815Z,1348
2017-07-10T04:01:46.073Z,1408
2017-07-10T04:02:47.309Z,1464
2017-07-10T04:03:48.568Z,1512
2017-07-10T04:04:49.877Z,1556
2017-07-10T04:05:51.124Z,1592
2017-07-10T04:06:52.381Z,1616
2017-07-10T04:07:53.630Z,1632
2017-07-10T04:08:54.966Z,1644
2017-07-10T04:09:56.195Z,1660
2017-07-10T04:10:57.432Z,1692
2017-07-10T04:11:58.690Z,1732
2017-07-10T04:12:59.958Z,1776
2017-07-10T04:14:01.221Z,1824
2017-07-10T04:15:02.572Z,1884
2017-07-10T04:16:03.901Z,1936
2017-07-10T04:17:05.132Z,1984
2017-07-10T04:18:06.367Z,2036
2017-07-10T04:19:07.610Z,2108
2017-07-10T04:20:08.859Z,2188
2017-07-10T04:21:10.227Z,2284
2017-07-10T04:22:11.471Z,2384
2017-07-10T04:23:12.716Z,2484
2017-07-10T04:24:13.957Z,2580
2017-07-10T04:25:15.231Z,2660
2017-07-10T04:26:16.486Z,2716
2017-07-10T04:27:17.788Z,2740
2017-07-10T04:28:19.089Z,2732
2017-07-10T04:29:20.330Z,2704
2017-07-10T04:30:21.582Z,2656
2017-07-10T04:31:22.833Z,2596
2017-07-10T04:32:24.119Z,2536
2017-07-10T04:33:25.356Z,2476
2017-07-10T04:34:26.605Z,2424
2017-07-10T04:35:27.848Z,2380
2017-07-10T04:36:29.093Z,2348
2017-07-10T04:37:30.420Z,2328
2017-07-10T04:38:31.681Z,2328
2017-07-10T04:39:32.944Z,2348
2017-07-10T04:40:34.211Z,2388
2017-07-10T04:41:35.472Z,2440
2017-07-10T04:42:36.729Z,2508
2017-07-10T04:43:37.980Z,2584
2017-07-10T04:44:39.254Z,2672
2017-07-10T04:45:40.637Z,2752
2017-07-10T04:46:41.937Z,2824
2017-07-10T04:47:43.186Z,2868
2017-07-10T04:48:44.441Z,2884
2017-07-10T04:49:45.687Z,2856
2017-07-10T04:50:46.945Z,2816
2017-07-10T04:51:48.311Z,2760
2017-07-10T04:52:49.685Z,2696
2017-07-10T04:53:50.931Z,2632
2017-07-10T04:54:52.180Z,2584
2017-07-10T04:55:53.449Z,2568
2017-07-10T04:56:54.686Z,2560
2017-07-10T04:57:55.989Z,2564
2017-07-10T04:58:57.236Z,2564
2017-07-10T04:59:58.513Z,2572
2017-07-10T05:00:59.750Z,2576
2017-07-10T05:02:01.010Z,2576
2017-07-10T05:03:02.280Z,2580
2017-07-10T05:04:03.559Z,2576
2017-07-10T05:05:04.786Z,2560
2017-07-10T05:06:06.099Z,2532
2017-07-10T05:07:07.350Z,2496
2017-07-10T05:08:08.597Z,2464
2017-07-10T05:09:10.030Z,2448
2017-07-10T05:10:11.169Z,2444
2017-07-10T05:11:12.424Z,2444
2017-07-10T05:12:13.689Z,2420
2017-07-10T05:13:14.924Z,2360
2017-07-10T05:14:16.175Z,2276
2017-07-10T05:15:17.429Z,2200
2017-07-10T05:16:18.762Z,2156
2017-07-10T05:17:20.001Z,2140
2017-07-10T05:18:21.259Z,2160
2017-07-10T05:19:22.510Z,2188
2017-07-10T05:20:23.772Z,2228
2017-07-10T05:21:25.054Z,2264
2017-07-10T05:22:26.568Z,2296
2017-07-10T05:23:28.055Z,2312
2017-07-10T05:24:29.324Z,2340
2017-07-10T05:25:30.559Z,2368
2017-07-10T05:26:31.835Z,2384
2017-07-10T05:27:33.101Z,2396
2017-07-10T05:28:34.397Z,2412
2017-07-10T05:29:35.633Z,2428
2017-07-10T05:30:36.880Z,2456
2017-07-10T05:31:38.148Z,2492
2017-07-10T05:32:39.381Z,2520
2017-07-10T05:33:40.671Z,2556
2017-07-10T05:34:41.921Z,2592
2017-07-10T05:35:43.158Z,2636
2017-07-10T05:36:44.406Z,2692
2017-07-10T05:37:45.657Z,2772
2017-07-10T05:38:46.904Z,2864
2017-07-10T05:39:48.279Z,2964
2017-07-10T05:40:49.577Z,3056
2017-07-10T05:41:50.830Z,3140
2017-07-10T05:42:52.092Z,3220
2017-07-10T05:43:53.341Z,3284
2017-07-10T05:44:54.574Z,3336
2017-07-10T05:45:55.875Z,3380
2017-07-10T05:46:57.270Z,3420
2017-07-10T05:47:58.639Z,3452
2017-07-10T05:48:59.879Z,3472
2017-07-10T05:50:01.149Z,3488
2017-07-10T05:51:02.424Z,3484
2017-07-10T05:52:03.726Z,3464
2017-07-10T05:53:05.003Z,3444
2017-07-10T05:54:06.282Z,3428
2017-07-10T05:55:07.525Z,3440
2017-07-10T05:56:08.774Z,3460
2017-07-10T05:57:10.139Z,3492
2017-07-10T05:58:11.386Z,3540
2017-07-10T05:59:12.637Z,3600
2017-07-10T06:00:13.881Z,3664
2017-07-10T06:01:15.125Z,3736
2017-07-10T06:02:16.465Z,3812
2017-07-10T06:03:17.647Z,3896
2017-07-10T06:04:18.938Z,3984
2017-07-10T06:05:20.207Z,4068
2017-07-10T06:06:21.487Z,4156
2017-07-10T06:07:22.743Z,4236
2017-07-10T06:08:23.980Z,4292
2017-07-10T06:09:25.237Z,4316
2017-07-10T06:10:26.492Z,4308
2017-07-10T06:11:27.742Z,4264
2017-07-10T06:12:28.984Z,4212
2017-07-10T06:13:30.277Z,4140
2017-07-10T06:14:31.534Z,4064
2017-07-10T06:15:32.753Z,4016
2017-07-10T06:16:34.062Z,4012
2017-07-10T06:17:35.332Z,3984
2017-07-10T06:18:36.582Z,3932
2017-07-10T06:19:37.873Z,3880
2017-07-10T06:20:39.114Z,3856
2017-07-10T06:21:40.370Z,3836
2017-07-10T06:22:41.640Z,3812
2017-07-10T06:23:43.176Z,3764
2017-07-10T06:24:44.456Z,3704
2017-07-10T06:25:45.702Z,3632
2017-07-10T06:26:46.944Z,3532
2017-07-10T06:27:48.199Z,3456
2017-07-10T06:28:49.443Z,3424
2017-07-10T06:29:50.680Z,3428
2017-07-10T06:30:51.929Z,3440
2017-07-10T06:31:53.203Z,3464
2017-07-10T06:32:54.449Z,3484
2017-07-10T06:33:55.676Z,3524
2017-07-10T06:34:56.963Z,3600
2017-07-10T06:35:58.184Z,3704
2017-07-10T06:36:59.446Z,3832
2017-07-10T06:38:00.676Z,3980
2017-07-10T06:39:01.946Z,4140
2017-07-10T06:40:03.298Z,4300
2017-07-10T06:41:04.533Z,4428
2017-07-10T06:42:05.782Z,4532
2017-07-10T06:43:07.033Z,4604
2017-07-10T06:44:08.278Z,4660
2017-07-10T06:45:09.511Z,4708
2017-07-10T06:46:10.759Z,4752
2017-07-10T06:47:12.067Z,4800
2017-07-10T06:48:13.298Z,4884
2017-07-10T06:49:14.589Z,5000
2017-07-10T06:50:15.845Z,5128
2017-07-10T06:51:17.101Z,5228
2017-07-10T06:52:18.449Z,5328
2017-07-10T06:53:19.678Z,5448
2017-07-10T06:54:20.915Z,5608
2017-07-10T06:55:22.269Z,5880
2017-07-10T06:56:23.517Z,6308
2017-07-10T06:57:24.764Z,6912
2017-07-10T06:58:26.024Z,7696
2017-07-10T06:59:27.310Z,8596
2017-07-10T07:00:28.531Z,9464
2017-07-10T07:01:29.816Z,10256
2017-07-10T07:02:31.071Z,10892
2017-07-10T07:03:32.320Z,11320
2017-07-10T07:04:33.613Z,11360
2017-07-10T07:05:34.920Z,11160
2017-07-10T07:06:36.257Z,10908
2017-07-10T07:07:37.506Z,10564
2017-07-10T07:08:38.757Z,10368
2017-07-10T07:09:39.995Z,10088
2017-07-10T07:10:41.277Z,9992
2017-07-10T07:11:42.551Z,9312
2017-07-10T07:12:43.900Z,8944
2017-07-10T07:13:45.142Z,8688
2017-07-10T07:14:46.450Z,8312
2017-07-10T07:15:47.710Z,7880
2017-07-10T07:16:48.949Z,7544
2017-07-10T07:17:50.201Z,7408
2017-07-10T07:18:51.459Z,7360
2017-07-10T07:19:52.919Z,7332
2017-07-10T07:20:54.224Z,7276
2017-07-10T07:21:55.452Z,7248
2017-07-10T07:22:56.702Z,7272
2017-07-10T07:23:57.953Z,7332
2017-07-10T07:24:59.370Z,7396
2017-07-10T07:26:00.761Z,7424
2017-07-10T07:27:02.008Z,7384
2017-07-10T07:28:03.351Z,7276
2017-07-10T07:29:04.678Z,7120
2017-07-10T07:30:05.958Z,6960
2017-07-10T07:31:07.206Z,6808
2017-07-10T07:32:08.473Z,6620
2017-07-10T07:33:09.725Z,6376
2017-07-10T07:34:10.986Z,6072
2017-07-10T07:35:12.230Z,5760
2017-07-10T07:36:13.487Z,5492
2017-07-10T07:37:14.762Z,5328
2017-07-10T07:38:16.027Z,5256
2017-07-10T07:39:17.275Z,5232
2017-07-10T07:40:18.539Z,5216
2017-07-10T07:41:19.826Z,5188
2017-07-10T07:42:21.062Z,5128
2017-07-10T07:43:22.314Z,5040
2017-07-10T07:44:23.565Z,4964
2017-07-10T07:45:24.810Z,4928
2017-07-10T07:46:26.063Z,4932
2017-07-10T07:47:27.371Z,4980
2017-07-10T07:48:28.632Z,5064
2017-07-10T07:49:29.893Z,5148
2017-07-10T07:50:31.177Z,5208
2017-07-10T07:51:32.419Z,5228
2017-07-10T07:52:33.707Z,5200
2017-07-10T07:53:35.171Z,5116
2017-07-10T07:54:36.416Z,5008
2017-07-10T07:55:37.655Z,4916
2017-07-10T07:56:38.901Z,4884
2017-07-10T07:57:40.151Z,4912
2017-07-10T07:58:41.414Z,4980
2017-07-10T07:59:42.678Z,5044
2017-07-10T08:00:43.964Z,5080
2017-07-10T08:01:45.206Z,5076
2017-07-10T08:02:46.453Z,5076
2017-07-10T08:03:47.700Z,5100
2017-07-10T08:04:48.950Z,5184
2017-07-10T08:05:50.211Z,5352
2017-07-10T08:06:51.458Z,5600
2017-07-10T08:07:52.843Z,5880
2017-07-10T08:08:54.111Z,6132
2017-07-10T08:09:55.341Z,6312
2017-07-10T08:10:56.583Z,6408
2017-07-10T08:11:57.832Z,6416
2017-07-10T08:12:59.090Z,6320
2017-07-10T08:14:00.343Z,6192
2017-07-10T08:15:01.586Z,6112
2017-07-10T08:16:02.827Z,6124
2017-07-10T08:17:04.076Z,6232
2017-07-10T08:18:05.402Z,6396
2017-07-10T08:19:06.684Z,6580
2017-07-10T08:20:07.941Z,6656
2017-07-10T08:21:09.208Z,6512
2017-07-10T08:22:10.561Z,6208
2017-07-10T08:23:11.775Z,5816
2017-07-10T08:24:13.099Z,5440
2017-07-10T08:25:14.391Z,5136
2017-07-10T08:26:15.615Z,4908
2017-07-10T08:27:16.880Z,4720
2017-07-10T08:28:18.111Z,4576
2017-07-10T08:29:19.358Z,4496
2017-07-10T08:30:20.641Z,4472
2017-07-10T08:31:21.930Z,4488
2017-07-10T08:32:23.191Z,4520
2017-07-10T08:33:24.469Z,4560
2017-07-10T08:34:25.709Z,4612
2017-07-10T08:35:26.945Z,4664
2017-07-10T08:36:28.266Z,4708
2017-07-10T08:37:29.445Z,4780
2017-07-10T08:38:30.723Z,4836
2017-07-10T08:39:32.060Z,4884
2017-07-10T08:40:33.321Z,4892
2017-07-10T08:41:34.550Z,4848
2017-07-10T08:42:35.808Z,4776
2017-07-10T08:43:37.100Z,4740
2017-07-10T08:44:38.393Z,4784
2017-07-10T08:45:39.638Z,4904
2017-07-10T08:46:40.885Z,5060
2017-07-10T08:47:42.133Z,5256
2017-07-10T08:48:43.393Z,5456
2017-07-10T08:49:44.643Z,5664
2017-07-10T08:50:45.905Z,5852
2017-07-10T08:51:47.137Z,6028
2017-07-10T08:52:48.401Z,6168
2017-07-10T08:53:49.641Z,6320
2017-07-10T08:54:50.916Z,6500
2017-07-10T08:55:52.171Z,6728
2017-07-10T08:56:53.425Z,6988
2017-07-10T08:57:54.706Z,7272
2017-07-10T08:58:55.967Z,7628
2017-07-10T08:59:57.214Z,8040
2017-07-10T09:00:58.526Z,8452
2017-07-10T09:01:59.794Z,8864
2017-07-10T09:03:01.127Z,9324
2017-07-10T09:04:02.379Z,9700
2017-07-10T09:05:03.623Z,10036
2017-07-10T09:06:04.877Z,10328
2017-07-10T09:07:06.118Z,10564
2017-07-10T09:08:07.357Z,10656
2017-07-10T09:09:08.623Z,10668
2017-07-10T09:10:09.858Z,10684
2017-07-10T09:11:11.104Z,10788
2017-07-10T09:12:12.501Z,11064
2017-07-10T09:13:13.733Z,11536
2017-07-10T09:14:14.984Z,12008
2017-07-10T09:15:16.295Z,12484
2017-07-10T09:16:17.567Z,13084
2017-07-10T09:17:18.832Z,13780
2017-07-10T09:18:20.083Z,14404
2017-07-10T09:19:21.364Z,14540
2017-07-10T09:20:22.633Z,14332
2017-07-10T09:21:23.923Z,14036
2017-07-10T09:22:25.216Z,13816
2017-07-10T09:23:26.476Z,13804
2017-07-10T09:24:27.722Z,13940
2017-07-10T09:25:28.984Z,14224
2017-07-10T09:26:30.292Z,14572
2017-07-10T09:27:31.512Z,15012
2017-07-10T09:28:32.824Z,15448
2017-07-10T09:29:34.195Z,15784
2017-07-10T09:30:35.439Z,15860
2017-07-10T09:31:36.703Z,15668
2017-07-10T09:32:37.981Z,15468
2017-07-10T09:33:39.216Z,15392
2017-07-10T09:34:40.588Z,15480
2017-07-10T09:35:41.847Z,15680
2017-07-10T09:36:43.092Z,15800
2017-07-10T09:37:44.410Z,15776
2017-07-10T09:38:45.654Z,15668
2017-07-10T09:39:46.950Z,15440
2017-07-10T09:40:48.233Z,15340
2017-07-10T09:41:49.483Z,15416
2017-07-10T09:42:50.734Z,15572
2017-07-10T09:43:51.999Z,15544
2017-07-10T09:44:53.314Z,15404
2017-07-10T09:45:54.595Z,15420
2017-07-10T09:46:55.843Z,15756
2017-07-10T09:47:57.100Z,16416
2017-07-10T09:48:58.369Z,16864
2017-07-10T09:49:59.625Z,17472
2017-07-10T09:51:00.977Z,18496
2017-07-10T09:52:02.245Z,20096
2017-07-10T09:53:03.506Z,22016
2017-07-10T09:54:04.764Z,22400
2017-07-10T09:55:06.011Z,22272
2017-07-10T09:56:07.275Z,22624
2017-07-10T09:57:08.548Z,24096
2017-07-10T09:58:09.789Z,29536
2017-07-10T09:59:11.087Z,37472
2017-07-10T10:00:12.590Z,36160
2017-07-10T10:01:13.861Z,35104
2017-07-10T10:02:15.124Z,54912
2017-07-10T10:03:16.444Z,58400
2017-07-10T10:04:17.724Z,77088
2017-07-10T10:05:18.991Z,63232
2017-07-10T10:06:20.253Z,44736
2017-07-10T10:07:21.626Z,74880
2017-07-10T10:08:22.929Z,64704
2017-07-10T10:09:24.260Z,83936
2017-07-10T10:10:25.522Z,81536
2017-07-10T10:11:26.790Z,74304
2017-07-10T10:12:28.037Z,51328
2017-07-10T10:13:29.338Z,59808
2017-07-10T10:14:30.646Z,80288
2017-07-10T10:15:32.045Z,77184
2017-07-10T10:16:33.294Z,69504
2017-07-10T10:17:34.570Z,88896
2017-07-10T10:18:35.831Z,69152
2017-07-10T10:19:37.117Z,68864
2017-07-10T10:20:38.431Z,71552
2017-07-10T10:21:39.686Z,33280
2017-07-10T10:22:40.974Z,36672
2017-07-10T10:23:42.208Z,85632
2017-07-10T10:24:43.465Z,70496
2017-07-10T10:25:44.730Z,66240
2017-07-10T10:26:45.983Z,57824
2017-07-10T10:27:47.263Z,54592
2017-07-10T10:28:48.537Z,69408
2017-07-10T10:29:49.796Z,44384
2017-07-10T10:30:51.064Z,52704
2017-07-10T10:31:52.345Z,61760
2017-07-10T10:32:53.733Z,37120
2017-07-10T10:33:55.035Z,28224
2017-07-10T10:34:56.321Z,26208
2017-07-10T10:35:57.563Z,25728
2017-07-10T10:36:58.840Z,26592
2017-07-10T10:38:00.162Z,28896
2017-07-10T10:39:01.399Z,29024
2017-07-10T10:40:02.632Z,26048
2017-07-10T10:41:03.898Z,24448
2017-07-10T10:42:05.173Z,23296
2017-07-10T10:43:06.483Z,21984
2017-07-10T10:44:07.738Z,20960
2017-07-10T10:45:08.996Z,20096
2017-07-10T10:46:10.265Z,19488
2017-07-10T10:47:11.542Z,19264
2017-07-10T10:48:12.841Z,19104
2017-07-10T10:49:14.092Z,18880
2017-07-10T10:50:15.387Z,18752
2017-07-10T10:51:16.656Z,18880
2017-07-10T10:52:17.897Z,18688
2017-07-10T10:53:19.148Z,18176
2017-07-10T10:54:20.393Z,17728
2017-07-10T10:55:21.654Z,17408
2017-07-10T10:56:22.980Z,17312
2017-07-10T10:57:24.248Z,17120
2017-07-10T10:58:25.491Z,16608
2017-07-10T10:59:26.751Z,15760
2017-07-10T11:00:28.021Z,15416
2017-07-10T11:01:29.278Z,15936
2017-07-10T11:02:30.537Z,15224
2017-07-10T11:03:31.809Z,14156
2017-07-10T11:04:33.492Z,14648
2017-07-10T11:05:34.758Z,18880
2017-07-10T11:06:36.013Z,23200
2017-07-10T11:07:37.309Z,23712
2017-07-10T11:08:38.623Z,22752
2017-07-10T11:09:39.867Z,21856
2017-07-10T11:10:41.100Z,20832
2017-07-10T11:11:42.365Z,19200
2017-07-10T11:12:43.666Z,17472
2017-07-10T11:13:44.954Z,16088
2017-07-10T11:14:46.208Z,14664
2017-07-10T11:15:47.466Z,13892
2017-07-10T11:16:48.722Z,13512
2017-07-10T11:17:49.984Z,13276
2017-07-10T11:18:51.400Z,13124
2017-07-10T11:19:52.709Z,13512
2017-07-10T11:20:53.970Z,13668
2017-07-10T11:21:55.223Z,13820
2017-07-10T11:22:56.538Z,14264
2017-07-10T11:23:57.797Z,15276
2017-07-10T11:24:59.129Z,17600
2017-07-10T11:26:00.386Z,19584
2017-07-10T11:27:01.654Z,21120
2017-07-10T11:28:02.910Z,22464
2017-07-10T11:29:04.174Z,22720
2017-07-10T11:30:05.449Z,22624
2017-07-10T11:31:06.770Z,22848
2017-07-10T11:32:08.031Z,21664
2017-07-10T11:33:09.292Z,21536
2017-07-10T11:34:10.607Z,22240
2017-07-10T11:35:11.848Z,21280
2017-07-10T11:36:13.125Z,19680
2017-07-10T11:37:14.463Z,18816
2017-07-10T11:38:15.765Z,17568
2017-07-10T11:39:17.043Z,16704
2017-07-10T11:40:18.274Z,16352
2017-07-10T11:41:19.530Z,16512
2017-07-10T11:42:20.803Z,16864
2017-07-10T11:43:22.131Z,17920
2017-07-10T11:44:23.429Z,18272
2017-07-10T11:45:24.696Z,16736
2017-07-10T11:46:25.961Z,15472
2017-07-10T11:47:27.237Z,14200
2017-07-10T11:48:28.496Z,13148
2017-07-10T11:49:29.741Z,12424
2017-07-10T11:50:30.991Z,11796
2017-07-10T11:51:32.244Z,11136
2017-07-10T11:52:33.502Z,10520
2017-07-10T11:53:34.786Z,10328
2017-07-10T11:54:36.047Z,10556
2017-07-10T11:55:37.326Z,10688
2017-07-10T11:56:38.625Z,10460
2017-07-10T11:57:39.890Z,10644
2017-07-10T11:58:41.152Z,11508
2017-07-10T11:59:42.400Z,13352
2017-07-10T12:00:43.695Z,15144
2017-07-10T12:01:44.962Z,15096
2017-07-10T12:02:46.239Z,14624
2017-07-10T12:03:47.494Z,13912
2017-07-10T12:04:48.749Z,13260
2017-07-10T12:05:50.001Z,12840
2017-07-10T12:06:51.259Z,12656
2017-07-10T12:07:52.652Z,12560
2017-07-10T12:08:53.929Z,12484
2017-07-10T12:09:55.214Z,12372
2017-07-10T12:10:56.473Z,12324
2017-07-10T12:11:57.733Z,12472
2017-07-10T12:12:58.997Z,12920
2017-07-10T12:14:00.335Z,13412
2017-07-10T12:15:01.577Z,13732
2017-07-10T12:16:02.835Z,13788
2017-07-10T12:17:04.101Z,13432
2017-07-10T12:18:05.348Z,13472
2017-07-10T12:19:06.643Z,13376
2017-07-10T12:20:07.844Z,13260
2017-07-10T12:21:09.151Z,13756
2017-07-10T12:22:10.544Z,14920
2017-07-10T12:23:11.844Z,16576
2017-07-10T12:24:13.074Z,18464
2017-07-10T12:25:14.357Z,20320
2017-07-10T12:26:15.638Z,22784
2017-07-10T12:27:16.893Z,25056
2017-07-10T12:28:18.135Z,25344
2017-07-10T12:29:19.387Z,23680
2017-07-10T12:30:20.661Z,21568
2017-07-10T12:31:21.913Z,20192
2017-07-10T12:32:23.171Z,18016
2017-07-10T12:33:24.424Z,16640
2017-07-10T12:34:25.692Z,18016
2017-07-10T12:35:26.921Z,19008
2017-07-10T12:36:28.192Z,17664
2017-07-10T12:37:29.437Z,20448
2017-07-10T12:38:30.740Z,20384
2017-07-10T12:39:32.073Z,17344
2017-07-10T12:40:33.341Z,15700
2017-07-10T12:41:34.611Z,14972
2017-07-10T12:42:35.868Z,14564
2017-07-10T12:43:37.102Z,13124
2017-07-10T12:44:38.411Z,11436
2017-07-10T12:45:39.684Z,11032
2017-07-10T12:46:40.931Z,11380
2017-07-10T12:47:42.190Z,12080
2017-07-10T12:48:43.442Z,12276
2017-07-10T12:49:44.708Z,11432
2017-07-10T12:50:45.946Z,10496
2017-07-10T12:51:47.197Z,9880
2017-07-10T12:52:48.444Z,9800
2017-07-10T12:53:49.704Z,10952
2017-07-10T12:54:50.979Z,12512
2017-07-10T12:55:52.256Z,13144
2017-07-10T12:56:53.497Z,12276
2017-07-10T12:57:54.780Z,10396
2017-07-10T12:58:56.026Z,9280
2017-07-10T12:59:57.287Z,8496
2017-07-10T13:00:58.621Z,8800
2017-07-10T13:01:59.881Z,9660
2017-07-10T13:03:01.137Z,9808
2017-07-10T13:04:02.393Z,9752
2017-07-10T13:05:03.683Z,9452
2017-07-10T13:06:04.976Z,8676
2017-07-10T13:07:06.230Z,8256
2017-07-10T13:08:07.509Z,7512
2017-07-10T13:09:08.777Z,6712
2017-07-10T13:10:10.104Z,6240
2017-07-10T13:11:11.381Z,6084
2017-07-10T13:12:12.664Z,5540
2017-07-10T13:13:13.914Z,4796
2017-07-10T13:14:15.162Z,4304
2017-07-10T13:15:16.513Z,4044
2017-07-10T13:16:17.873Z,3832
2017-07-10T13:17:19.211Z,3624
2017-07-10T13:18:20.470Z,3232
2017-07-10T13:19:21.726Z,3104
2017-07-10T13:20:22.966Z,3504
2017-07-10T13:21:24.247Z,4544
2017-07-10T13:22:25.586Z,5948
2017-07-10T13:23:26.885Z,7036
2017-07-10T13:24:28.146Z,7892
2017-07-10T13:25:29.392Z,8536
2017-07-10T13:26:30.651Z,9016
2017-07-10T13:27:31.911Z,9528
2017-07-10T13:28:33.195Z,9988
2017-07-10T13:29:34.559Z,10076
2017-07-10T13:30:35.812Z,10004
2017-07-10T13:31:37.057Z,9940
2017-07-10T13:32:38.327Z,9940
2017-07-10T13:33:39.572Z,10444
2017-07-10T13:34:40.855Z,11624
2017-07-10T13:35:42.198Z,13584
2017-07-10T13:36:43.454Z,15700
2017-07-10T13:37:44.692Z,17632
2017-07-10T13:38:45.952Z,19040
2017-07-10T13:39:47.270Z,19616
2017-07-10T13:40:48.553Z,18976
2017-07-10T13:41:49.815Z,17664
2017-07-10T13:42:51.078Z,16304
2017-07-10T13:43:52.330Z,15164
2017-07-10T13:44:53.581Z,14288
2017-07-10T13:45:54.868Z,13836
2017-07-10T13:46:56.151Z,13228
2017-07-10T13:47:57.424Z,12688